sensor_id;sensor_type;location;lat;lon;timestamp;P1;durP1;ratioP1;P2;durP2;ratioP2
40995;SDS011;26723;57.478;12.066;2022-08-19T00:00:52;3.92;;;3.40;;
40995;SDS011;26723;57.478;12.066;2022-08-19T00:04:01;4.07;;;3.60;;
40995;SDS011;26723;57.478;12.066;2022-08-19T00:07:11;3.97;;;3.67;;
40995;SDS011;26723;57.478;12.066;2022-08-19T00:10:20;3.47;;;3.17;;
40995;SDS011;26723;57.478;12.066;2022-08-19T00:13:30;3.85;;;3.45;;
40995;SDS011;26723;57.478;12.066;2022-08-19T00:16:40;4.28;;;3.78;;
40995;SDS011;26723;57.478;12.066;2022-08-19T00:19:50;4.20;;;3.80;;
40995;SDS011;26723;57.478;12.066;2022-08-19T00:22:58;4.60;;;4.05;;
40995;SDS011;26723;57.478;12.066;2022-08-19T00:26:06;4.13;;;3.67;;
40995;SDS011;26723;57.478;12.066;2022-08-19T00:29:15;5.00;;;4.07;;
40995;SDS011;26723;57.478;12.066;2022-08-19T00:32:27;4.57;;;4.05;;
40995;SDS011;26723;57.478;12.066;2022-08-19T00:35:36;4.10;;;3.80;;
40995;SDS011;26723;57.478;12.066;2022-08-19T00:38:44;4.35;;;3.95;;
40995;SDS011;26723;57.478;12.066;2022-08-19T00:41:53;3.80;;;3.58;;
40995;SDS011;26723;57.478;12.066;2022-08-19T00:45:01;4.18;;;3.85;;
40995;SDS011;26723;57.478;12.066;2022-08-19T00:48:17;4.32;;;3.83;;
40995;SDS011;26723;57.478;12.066;2022-08-19T00:51:25;4.65;;;4.18;;
40995;SDS011;26723;57.478;12.066;2022-08-19T00:54:36;4.00;;;3.60;;
40995;SDS011;26723;57.478;12.066;2022-08-19T00:57:47;4.18;;;3.75;;
40995;SDS011;26723;57.478;12.066;2022-08-19T01:01:01;4.93;;;4.43;;
40995;SDS011;26723;57.478;12.066;2022-08-19T01:04:11;5.05;;;4.55;;
40995;SDS011;26723;57.478;12.066;2022-08-19T01:07:20;5.93;;;4.90;;
40995;SDS011;26723;57.478;12.066;2022-08-19T01:10:30;5.68;;;3.70;;
40995;SDS011;26723;57.478;12.066;2022-08-19T01:13:42;4.82;;;4.28;;
40995;SDS011;26723;57.478;12.066;2022-08-19T01:16:55;4.80;;;3.92;;
40995;SDS011;26723;57.478;12.066;2022-08-19T01:20:08;4.18;;;3.83;;
40995;SDS011;26723;57.478;12.066;2022-08-19T01:23:19;4.00;;;3.70;;
40995;SDS011;26723;57.478;12.066;2022-08-19T01:26:27;4.30;;;3.97;;
40995;SDS011;26723;57.478;12.066;2022-08-19T01:29:39;4.13;;;3.60;;
40995;SDS011;26723;57.478;12.066;2022-08-19T01:32:48;3.88;;;3.47;;
40995;SDS011;26723;57.478;12.066;2022-08-19T01:36:03;4.20;;;3.80;;
40995;SDS011;26723;57.478;12.066;2022-08-19T01:39:16;4.15;;;3.75;;
40995;SDS011;26723;57.478;12.066;2022-08-19T01:42:27;3.88;;;3.58;;
40995;SDS011;26723;57.478;12.066;2022-08-19T01:45:38;5.72;;;4.38;;
40995;SDS011;26723;57.478;12.066;2022-08-19T01:48:47;5.55;;;4.55;;
40995;SDS011;26723;57.478;12.066;2022-08-19T01:51:55;4.80;;;4.30;;
40995;SDS011;26723;57.478;12.066;2022-08-19T01:55:07;7.55;;;4.85;;
40995;SDS011;26723;57.478;12.066;2022-08-19T01:58:18;5.38;;;4.70;;
40995;SDS011;26723;57.478;12.066;2022-08-19T02:01:28;4.97;;;4.47;;
40995;SDS011;26723;57.478;12.066;2022-08-19T02:04:38;4.72;;;4.10;;
40995;SDS011;26723;57.478;12.066;2022-08-19T02:07:46;5.50;;;4.43;;
40995;SDS011;26723;57.478;12.066;2022-08-19T02:10:56;5.00;;;4.50;;
40995;SDS011;26723;57.478;12.066;2022-08-19T02:14:05;4.50;;;4.10;;
40995;SDS011;26723;57.478;12.066;2022-08-19T02:17:14;4.68;;;4.22;;
40995;SDS011;26723;57.478;12.066;2022-08-19T02:20:22;5.13;;;4.63;;
40995;SDS011;26723;57.478;12.066;2022-08-19T02:23:31;4.97;;;4.47;;
40995;SDS011;26723;57.478;12.066;2022-08-19T02:26:40;5.15;;;4.10;;
40995;SDS011;26723;57.478;12.066;2022-08-19T02:29:50;4.07;;;3.67;;
40995;SDS011;26723;57.478;12.066;2022-08-19T02:32:58;4.43;;;4.03;;
40995;SDS011;26723;57.478;12.066;2022-08-19T02:36:07;4.60;;;4.20;;
40995;SDS011;26723;57.478;12.066;2022-08-19T02:39:16;4.50;;;4.10;;
40995;SDS011;26723;57.478;12.066;2022-08-19T02:42:25;4.30;;;4.00;;
40995;SDS011;26723;57.478;12.066;2022-08-19T02:45:33;4.45;;;4.05;;
40995;SDS011;26723;57.478;12.066;2022-08-19T02:48:45;4.22;;;3.75;;
40995;SDS011;26723;57.478;12.066;2022-08-19T02:51:54;4.40;;;4.00;;
40995;SDS011;26723;57.478;12.066;2022-08-19T02:55:03;5.50;;;4.00;;
40995;SDS011;26723;57.478;12.066;2022-08-19T02:58:14;5.00;;;4.50;;
40995;SDS011;26723;57.478;12.066;2022-08-19T03:01:25;4.38;;;3.97;;
40995;SDS011;26723;57.478;12.066;2022-08-19T03:04:35;5.65;;;4.45;;
40995;SDS011;26723;57.478;12.066;2022-08-19T03:07:43;6.57;;;4.30;;
40995;SDS011;26723;57.478;12.066;2022-08-19T03:10:52;5.43;;;4.88;;
40995;SDS011;26723;57.478;12.066;2022-08-19T03:14:02;4.78;;;4.32;;
40995;SDS011;26723;57.478;12.066;2022-08-19T03:17:12;4.32;;;3.92;;
40995;SDS011;26723;57.478;12.066;2022-08-19T03:20:20;4.68;;;4.28;;
40995;SDS011;26723;57.478;12.066;2022-08-19T03:23:29;5.10;;;4.60;;
40995;SDS011;26723;57.478;12.066;2022-08-19T03:26:38;5.13;;;4.43;;
40995;SDS011;26723;57.478;12.066;2022-08-19T03:29:50;5.18;;;4.65;;
40995;SDS011;26723;57.478;12.066;2022-08-19T03:32:58;4.88;;;4.32;;
40995;SDS011;26723;57.478;12.066;2022-08-19T03:36:08;5.88;;;5.28;;
40995;SDS011;26723;57.478;12.066;2022-08-19T03:39:18;5.38;;;4.85;;
40995;SDS011;26723;57.478;12.066;2022-08-19T03:42:26;5.95;;;4.65;;
40995;SDS011;26723;57.478;12.066;2022-08-19T03:46:00;6.53;;;4.85;;
40995;SDS011;26723;57.478;12.066;2022-08-19T03:49:10;5.68;;;5.18;;
40995;SDS011;26723;57.478;12.066;2022-08-19T03:52:19;5.25;;;4.75;;
40995;SDS011;26723;57.478;12.066;2022-08-19T03:55:28;6.05;;;5.30;;
40995;SDS011;26723;57.478;12.066;2022-08-19T03:58:36;7.70;;;5.68;;
40995;SDS011;26723;57.478;12.066;2022-08-19T04:01:48;7.60;;;6.05;;
40995;SDS011;26723;57.478;12.066;2022-08-19T04:04:56;6.15;;;5.55;;
40995;SDS011;26723;57.478;12.066;2022-08-19T04:08:05;6.97;;;5.45;;
40995;SDS011;26723;57.478;12.066;2022-08-19T04:11:21;7.15;;;5.70;;
40995;SDS011;26723;57.478;12.066;2022-08-19T04:14:49;6.97;;;5.78;;
40995;SDS011;26723;57.478;12.066;2022-08-19T04:17:58;6.00;;;5.28;;
40995;SDS011;26723;57.478;12.066;2022-08-19T04:21:07;6.78;;;5.53;;
40995;SDS011;26723;57.478;12.066;2022-08-19T04:24:16;6.55;;;5.43;;
40995;SDS011;26723;57.478;12.066;2022-08-19T04:27:24;6.13;;;5.10;;
40995;SDS011;26723;57.478;12.066;2022-08-19T04:30:37;7.63;;;5.72;;
40995;SDS011;26723;57.478;12.066;2022-08-19T04:33:47;7.07;;;5.57;;
40995;SDS011;26723;57.478;12.066;2022-08-19T04:36:56;7.15;;;5.45;;
40995;SDS011;26723;57.478;12.066;2022-08-19T04:40:06;7.30;;;5.38;;
40995;SDS011;26723;57.478;12.066;2022-08-19T04:43:33;5.53;;;5.03;;
40995;SDS011;26723;57.478;12.066;2022-08-19T04:46:42;6.45;;;5.85;;
40995;SDS011;26723;57.478;12.066;2022-08-19T04:49:58;6.63;;;5.22;;
40995;SDS011;26723;57.478;12.066;2022-08-19T04:53:07;6.22;;;5.63;;
40995;SDS011;26723;57.478;12.066;2022-08-19T04:56:16;5.88;;;5.28;;
40995;SDS011;26723;57.478;12.066;2022-08-19T04:59:27;5.60;;;5.10;;
40995;SDS011;26723;57.478;12.066;2022-08-19T05:02:35;5.75;;;4.90;;
40995;SDS011;26723;57.478;12.066;2022-08-19T05:05:45;5.22;;;4.70;;
40995;SDS011;26723;57.478;12.066;2022-08-19T05:08:55;4.47;;;4.13;;
40995;SDS011;26723;57.478;12.066;2022-08-19T05:12:04;4.05;;;3.75;;
40995;SDS011;26723;57.478;12.066;2022-08-19T05:15:13;3.42;;;3.22;;
40995;SDS011;26723;57.478;12.066;2022-08-19T05:18:21;3.70;;;3.45;;
40995;SDS011;26723;57.478;12.066;2022-08-19T05:21:48;4.10;;;3.80;;
40995;SDS011;26723;57.478;12.066;2022-08-19T05:25:14;4.13;;;3.83;;
40995;SDS011;26723;57.478;12.066;2022-08-19T05:28:26;3.72;;;3.53;;
40995;SDS011;26723;57.478;12.066;2022-08-19T05:31:36;3.65;;;3.42;;
40995;SDS011;26723;57.478;12.066;2022-08-19T05:34:47;3.58;;;3.28;;
40995;SDS011;26723;57.478;12.066;2022-08-19T05:37:56;4.10;;;3.70;;
40995;SDS011;26723;57.478;12.066;2022-08-19T05:41:06;4.05;;;3.75;;
40995;SDS011;26723;57.478;12.066;2022-08-19T05:44:15;4.18;;;3.78;;
40995;SDS011;26723;57.478;12.066;2022-08-19T05:47:24;4.25;;;3.85;;
40995;SDS011;26723;57.478;12.066;2022-08-19T05:50:32;3.55;;;3.35;;
40995;SDS011;26723;57.478;12.066;2022-08-19T05:53:42;3.85;;;3.55;;
40995;SDS011;26723;57.478;12.066;2022-08-19T05:56:51;4.15;;;3.75;;
40995;SDS011;26723;57.478;12.066;2022-08-19T06:00:00;3.97;;;3.67;;
40995;SDS011;26723;57.478;12.066;2022-08-19T06:03:17;3.65;;;3.40;;
40995;SDS011;26723;57.478;12.066;2022-08-19T06:06:25;3.25;;;3.05;;
40995;SDS011;26723;57.478;12.066;2022-08-19T06:09:34;3.55;;;3.30;;
40995;SDS011;26723;57.478;12.066;2022-08-19T06:12:43;3.88;;;3.58;;
40995;SDS011;26723;57.478;12.066;2022-08-19T06:15:51;3.75;;;3.47;;
40995;SDS011;26723;57.478;12.066;2022-08-19T06:19:00;4.00;;;3.70;;
40995;SDS011;26723;57.478;12.066;2022-08-19T06:22:09;3.60;;;3.33;;
40995;SDS011;26723;57.478;12.066;2022-08-19T06:25:20;3.67;;;3.38;;
40995;SDS011;26723;57.478;12.066;2022-08-19T06:28:33;3.80;;;3.50;;
40995;SDS011;26723;57.478;12.066;2022-08-19T06:31:41;3.90;;;3.60;;
40995;SDS011;26723;57.478;12.066;2022-08-19T06:34:51;4.00;;;3.70;;
40995;SDS011;26723;57.478;12.066;2022-08-19T06:37:59;3.80;;;3.50;;
40995;SDS011;26723;57.478;12.066;2022-08-19T06:41:09;3.80;;;3.50;;
40995;SDS011;26723;57.478;12.066;2022-08-19T06:44:17;4.05;;;3.75;;
40995;SDS011;26723;57.478;12.066;2022-08-19T06:47:27;4.18;;;3.83;;
40995;SDS011;26723;57.478;12.066;2022-08-19T06:50:35;4.50;;;4.20;;
40995;SDS011;26723;57.478;12.066;2022-08-19T06:53:46;4.13;;;3.83;;
40995;SDS011;26723;57.478;12.066;2022-08-19T06:57:01;4.07;;;3.78;;
40995;SDS011;26723;57.478;12.066;2022-08-19T07:00:10;4.57;;;4.00;;
40995;SDS011;26723;57.478;12.066;2022-08-19T07:03:20;5.00;;;4.57;;
40995;SDS011;26723;57.478;12.066;2022-08-19T07:06:28;4.75;;;4.35;;
40995;SDS011;26723;57.478;12.066;2022-08-19T07:09:49;4.47;;;4.07;;
40995;SDS011;26723;57.478;12.066;2022-08-19T07:13:08;4.45;;;4.13;;
40995;SDS011;26723;57.478;12.066;2022-08-19T07:16:17;4.88;;;4.47;;
40995;SDS011;26723;57.478;12.066;2022-08-19T07:19:35;5.40;;;5.00;;
40995;SDS011;26723;57.478;12.066;2022-08-19T07:22:44;5.25;;;4.85;;
40995;SDS011;26723;57.478;12.066;2022-08-19T07:25:53;5.22;;;4.82;;
40995;SDS011;26723;57.478;12.066;2022-08-19T07:29:03;5.25;;;4.85;;
40995;SDS011;26723;57.478;12.066;2022-08-19T07:32:11;5.07;;;4.68;;
40995;SDS011;26723;57.478;12.066;2022-08-19T07:35:20;4.80;;;4.50;;
40995;SDS011;26723;57.478;12.066;2022-08-19T07:38:28;5.35;;;4.95;;
40995;SDS011;26723;57.478;12.066;2022-08-19T07:41:36;4.97;;;4.57;;
40995;SDS011;26723;57.478;12.066;2022-08-19T07:44:46;5.03;;;4.72;;
40995;SDS011;26723;57.478;12.066;2022-08-19T07:47:56;5.00;;;4.65;;
40995;SDS011;26723;57.478;12.066;2022-08-19T07:51:06;5.20;;;4.80;;
40995;SDS011;26723;57.478;12.066;2022-08-19T07:54:20;5.43;;;5.03;;
40995;SDS011;26723;57.478;12.066;2022-08-19T07:57:29;5.75;;;5.35;;
40995;SDS011;26723;57.478;12.066;2022-08-19T08:00:39;5.38;;;4.97;;
40995;SDS011;26723;57.478;12.066;2022-08-19T08:03:48;5.80;;;5.40;;
40995;SDS011;26723;57.478;12.066;2022-08-19T08:07:15;5.85;;;5.35;;
40995;SDS011;26723;57.478;12.066;2022-08-19T08:10:41;5.47;;;5.07;;
40995;SDS011;26723;57.478;12.066;2022-08-19T08:13:58;5.85;;;5.40;;
40995;SDS011;26723;57.478;12.066;2022-08-19T08:17:11;5.80;;;5.32;;
40995;SDS011;26723;57.478;12.066;2022-08-19T08:20:40;5.10;;;4.80;;
40995;SDS011;26723;57.478;12.066;2022-08-19T08:23:48;5.25;;;4.85;;
40995;SDS011;26723;57.478;12.066;2022-08-19T08:27:01;4.88;;;4.57;;
40995;SDS011;26723;57.478;12.066;2022-08-19T08:30:17;5.05;;;4.75;;
40995;SDS011;26723;57.478;12.066;2022-08-19T08:33:28;4.80;;;4.50;;
40995;SDS011;26723;57.478;12.066;2022-08-19T08:36:42;5.10;;;4.80;;
40995;SDS011;26723;57.478;12.066;2022-08-19T08:39:52;4.93;;;4.63;;
40995;SDS011;26723;57.478;12.066;2022-08-19T08:43:03;4.85;;;4.55;;
40995;SDS011;26723;57.478;12.066;2022-08-19T08:46:17;5.05;;;4.65;;
40995;SDS011;26723;57.478;12.066;2022-08-19T08:49:40;5.40;;;5.00;;
40995;SDS011;26723;57.478;12.066;2022-08-19T08:52:56;4.88;;;4.57;;
40995;SDS011;26723;57.478;12.066;2022-08-19T08:56:06;5.00;;;4.60;;
40995;SDS011;26723;57.478;12.066;2022-08-19T08:59:23;4.60;;;4.20;;
40995;SDS011;26723;57.478;12.066;2022-08-19T09:02:38;5.00;;;4.70;;
40995;SDS011;26723;57.478;12.066;2022-08-19T09:05:52;5.00;;;4.57;;
40995;SDS011;26723;57.478;12.066;2022-08-19T09:09:11;5.20;;;4.90;;
40995;SDS011;26723;57.478;12.066;2022-08-19T09:12:25;4.57;;;4.28;;
40995;SDS011;26723;57.478;12.066;2022-08-19T09:15:42;4.50;;;4.20;;
40995;SDS011;26723;57.478;12.066;2022-08-19T09:18:53;4.43;;;4.15;;
40995;SDS011;26723;57.478;12.066;2022-08-19T09:22:05;4.53;;;4.22;;
40995;SDS011;26723;57.478;12.066;2022-08-19T09:25:16;4.78;;;4.47;;
40995;SDS011;26723;57.478;12.066;2022-08-19T09:28:32;4.55;;;4.15;;
40995;SDS011;26723;57.478;12.066;2022-08-19T09:31:40;4.72;;;4.43;;
40995;SDS011;26723;57.478;12.066;2022-08-19T09:34:48;4.93;;;4.63;;
40995;SDS011;26723;57.478;12.066;2022-08-19T09:37:59;4.80;;;4.50;;
40995;SDS011;26723;57.478;12.066;2022-08-19T09:41:09;4.80;;;4.50;;
40995;SDS011;26723;57.478;12.066;2022-08-19T09:44:20;4.30;;;4.10;;
40995;SDS011;26723;57.478;12.066;2022-08-19T09:47:28;4.78;;;4.47;;
40995;SDS011;26723;57.478;12.066;2022-08-19T09:50:37;4.53;;;4.22;;
40995;SDS011;26723;57.478;12.066;2022-08-19T09:54:00;4.93;;;4.63;;
40995;SDS011;26723;57.478;12.066;2022-08-19T09:57:10;4.95;;;4.55;;
40995;SDS011;26723;57.478;12.066;2022-08-19T10:00:18;4.72;;;4.43;;
40995;SDS011;26723;57.478;12.066;2022-08-19T10:03:27;4.65;;;4.35;;
40995;SDS011;26723;57.478;12.066;2022-08-19T10:06:38;4.82;;;4.53;;
40995;SDS011;26723;57.478;12.066;2022-08-19T10:09:53;4.60;;;4.30;;
40995;SDS011;26723;57.478;12.066;2022-08-19T10:13:01;4.57;;;4.28;;
40995;SDS011;26723;57.478;12.066;2022-08-19T10:16:11;4.55;;;4.22;;
40995;SDS011;26723;57.478;12.066;2022-08-19T10:19:22;4.50;;;4.20;;
40995;SDS011;26723;57.478;12.066;2022-08-19T10:22:31;4.57;;;4.28;;
40995;SDS011;26723;57.478;12.066;2022-08-19T10:25:43;4.47;;;4.18;;
40995;SDS011;26723;57.478;12.066;2022-08-19T10:28:53;4.70;;;4.40;;
40995;SDS011;26723;57.478;12.066;2022-08-19T10:32:03;4.63;;;4.32;;
40995;SDS011;26723;57.478;12.066;2022-08-19T10:35:15;4.55;;;4.25;;
40995;SDS011;26723;57.478;12.066;2022-08-19T10:38:28;4.90;;;4.50;;
40995;SDS011;26723;57.478;12.066;2022-08-19T10:41:39;4.75;;;4.45;;
40995;SDS011;26723;57.478;12.066;2022-08-19T10:44:49;4.60;;;4.30;;
40995;SDS011;26723;57.478;12.066;2022-08-19T10:47:57;3.92;;;3.72;;
40995;SDS011;26723;57.478;12.066;2022-08-19T10:51:05;4.28;;;4.07;;
40995;SDS011;26723;57.478;12.066;2022-08-19T10:54:33;4.60;;;4.30;;
40995;SDS011;26723;57.478;12.066;2022-08-19T10:57:56;4.38;;;4.07;;
40995;SDS011;26723;57.478;12.066;2022-08-19T11:01:08;4.25;;;3.95;;
40995;SDS011;26723;57.478;12.066;2022-08-19T11:04:17;4.28;;;4.07;;
40995;SDS011;26723;57.478;12.066;2022-08-19T11:07:26;4.60;;;3.85;;
40995;SDS011;26723;57.478;12.066;2022-08-19T11:10:34;4.15;;;3.85;;
40995;SDS011;26723;57.478;12.066;2022-08-19T11:13:44;4.10;;;3.80;;
40995;SDS011;26723;57.478;12.066;2022-08-19T11:16:52;4.50;;;4.18;;
40995;SDS011;26723;57.478;12.066;2022-08-19T11:20:02;4.43;;;4.20;;
40995;SDS011;26723;57.478;12.066;2022-08-19T11:23:12;4.30;;;4.00;;
40995;SDS011;26723;57.478;12.066;2022-08-19T11:26:20;4.10;;;3.80;;
40995;SDS011;26723;57.478;12.066;2022-08-19T11:29:30;4.47;;;4.18;;
40995;SDS011;26723;57.478;12.066;2022-08-19T11:32:40;4.82;;;4.53;;
40995;SDS011;26723;57.478;12.066;2022-08-19T11:35:56;4.57;;;4.22;;
40995;SDS011;26723;57.478;12.066;2022-08-19T11:39:05;4.60;;;4.30;;
40995;SDS011;26723;57.478;12.066;2022-08-19T11:42:14;4.72;;;4.43;;
40995;SDS011;26723;57.478;12.066;2022-08-19T11:45:49;4.85;;;4.53;;
40995;SDS011;26723;57.478;12.066;2022-08-19T11:48:58;4.50;;;4.20;;
40995;SDS011;26723;57.478;12.066;2022-08-19T11:52:07;4.68;;;4.38;;
40995;SDS011;26723;57.478;12.066;2022-08-19T11:55:17;4.90;;;4.60;;
40995;SDS011;26723;57.478;12.066;2022-08-19T11:58:25;4.82;;;4.53;;
40995;SDS011;26723;57.478;12.066;2022-08-19T12:01:35;5.22;;;4.82;;
40995;SDS011;26723;57.478;12.066;2022-08-19T12:04:43;4.55;;;4.25;;
40995;SDS011;26723;57.478;12.066;2022-08-19T12:07:51;4.80;;;4.40;;
40995;SDS011;26723;57.478;12.066;2022-08-19T12:11:00;4.90;;;4.50;;
40995;SDS011;26723;57.478;12.066;2022-08-19T12:14:10;4.88;;;4.57;;
40995;SDS011;26723;57.478;12.066;2022-08-19T12:17:23;4.60;;;4.30;;
40995;SDS011;26723;57.478;12.066;2022-08-19T12:20:33;4.72;;;4.43;;
40995;SDS011;26723;57.478;12.066;2022-08-19T12:23:43;5.15;;;4.75;;
40995;SDS011;26723;57.478;12.066;2022-08-19T12:26:52;5.05;;;4.65;;
40995;SDS011;26723;57.478;12.066;2022-08-19T12:30:07;4.88;;;4.57;;
40995;SDS011;26723;57.478;12.066;2022-08-19T12:33:19;5.00;;;4.60;;
40995;SDS011;26723;57.478;12.066;2022-08-19T12:36:31;5.22;;;4.88;;
40995;SDS011;26723;57.478;12.066;2022-08-19T12:39:41;5.57;;;5.18;;
40995;SDS011;26723;57.478;12.066;2022-08-19T12:42:49;5.38;;;4.97;;
40995;SDS011;26723;57.478;12.066;2022-08-19T12:45:58;5.43;;;4.93;;
40995;SDS011;26723;57.478;12.066;2022-08-19T12:49:08;5.95;;;5.55;;
40995;SDS011;26723;57.478;12.066;2022-08-19T12:52:36;5.35;;;5.05;;
40995;SDS011;26723;57.478;12.066;2022-08-19T12:55:44;5.70;;;5.30;;
40995;SDS011;26723;57.478;12.066;2022-08-19T12:58:52;5.38;;;4.97;;
40995;SDS011;26723;57.478;12.066;2022-08-19T13:02:01;6.05;;;5.55;;
40995;SDS011;26723;57.478;12.066;2022-08-19T13:05:13;4.38;;;4.10;;
40995;SDS011;26723;57.478;12.066;2022-08-19T13:08:22;3.00;;;2.80;;
40995;SDS011;26723;57.478;12.066;2022-08-19T13:11:31;2.53;;;2.38;;
40995;SDS011;26723;57.478;12.066;2022-08-19T13:14:40;2.53;;;2.33;;
40995;SDS011;26723;57.478;12.066;2022-08-19T13:17:49;2.30;;;2.15;;
40995;SDS011;26723;57.478;12.066;2022-08-19T13:21:02;2.22;;;2.10;;
40995;SDS011;26723;57.478;12.066;2022-08-19T13:24:11;2.25;;;2.10;;
40995;SDS011;26723;57.478;12.066;2022-08-19T13:27:19;1.90;;;1.80;;
40995;SDS011;26723;57.478;12.066;2022-08-19T13:30:27;1.80;;;1.75;;
40995;SDS011;26723;57.478;12.066;2022-08-19T13:33:53;3.42;;;1.90;;
40995;SDS011;26723;57.478;12.066;2022-08-19T13:37:03;1.98;;;1.60;;
40995;SDS011;26723;57.478;12.066;2022-08-19T13:40:13;1.50;;;1.50;;
40995;SDS011;26723;57.478;12.066;2022-08-19T13:43:25;1.63;;;1.50;;
40995;SDS011;26723;57.478;12.066;2022-08-19T13:46:35;1.58;;;1.48;;
40995;SDS011;26723;57.478;12.066;2022-08-19T13:49:43;1.40;;;1.30;;
40995;SDS011;26723;57.478;12.066;2022-08-19T13:52:53;1.60;;;1.50;;
40995;SDS011;26723;57.478;12.066;2022-08-19T13:56:04;1.80;;;1.63;;
40995;SDS011;26723;57.478;12.066;2022-08-19T13:59:13;1.50;;;1.50;;
40995;SDS011;26723;57.478;12.066;2022-08-19T14:02:21;1.50;;;1.50;;
40995;SDS011;26723;57.478;12.066;2022-08-19T14:05:30;1.30;;;1.30;;
40995;SDS011;26723;57.478;12.066;2022-08-19T14:08:40;1.70;;;1.60;;
40995;SDS011;26723;57.478;12.066;2022-08-19T14:11:51;1.52;;;1.50;;
40995;SDS011;26723;57.478;12.066;2022-08-19T14:14:59;1.42;;;1.40;;
40995;SDS011;26723;57.478;12.066;2022-08-19T14:18:08;1.77;;;1.67;;
40995;SDS011;26723;57.478;12.066;2022-08-19T14:21:19;2.03;;;1.88;;
40995;SDS011;26723;57.478;12.066;2022-08-19T14:24:30;1.70;;;1.60;;
40995;SDS011;26723;57.478;12.066;2022-08-19T14:27:39;1.52;;;1.52;;
40995;SDS011;26723;57.478;12.066;2022-08-19T14:30:48;1.55;;;1.50;;
40995;SDS011;26723;57.478;12.066;2022-08-19T14:34:01;1.58;;;1.48;;
40995;SDS011;26723;57.478;12.066;2022-08-19T14:37:10;1.50;;;1.50;;
40995;SDS011;26723;57.478;12.066;2022-08-19T14:40:22;2.15;;;1.67;;
40995;SDS011;26723;57.478;12.066;2022-08-19T14:43:33;2.03;;;1.80;;
40995;SDS011;26723;57.478;12.066;2022-08-19T14:46:41;1.80;;;1.70;;
40995;SDS011;26723;57.478;12.066;2022-08-19T14:49:55;1.65;;;1.58;;
40995;SDS011;26723;57.478;12.066;2022-08-19T14:53:04;1.70;;;1.60;;
40995;SDS011;26723;57.478;12.066;2022-08-19T14:56:20;1.50;;;1.50;;
40995;SDS011;26723;57.478;12.066;2022-08-19T14:59:30;1.30;;;1.30;;
40995;SDS011;26723;57.478;12.066;2022-08-19T15:02:38;1.70;;;1.60;;
40995;SDS011;26723;57.478;12.066;2022-08-19T15:05:47;1.77;;;1.67;;
40995;SDS011;26723;57.478;12.066;2022-08-19T15:08:55;1.60;;;1.60;;
40995;SDS011;26723;57.478;12.066;2022-08-19T15:12:10;1.60;;;1.50;;
40995;SDS011;26723;57.478;12.066;2022-08-19T15:15:27;1.63;;;1.52;;
40995;SDS011;26723;57.478;12.066;2022-08-19T15:18:35;1.55;;;1.55;;
40995;SDS011;26723;57.478;12.066;2022-08-19T15:21:44;1.33;;;1.33;;
40995;SDS011;26723;57.478;12.066;2022-08-19T15:24:52;1.70;;;1.60;;
40995;SDS011;26723;57.478;12.066;2022-08-19T15:28:03;1.33;;;1.25;;
40995;SDS011;26723;57.478;12.066;2022-08-19T15:31:12;1.40;;;1.40;;
40995;SDS011;26723;57.478;12.066;2022-08-19T15:34:34;1.48;;;1.38;;
40995;SDS011;26723;57.478;12.066;2022-08-19T15:37:42;1.55;;;1.45;;
40995;SDS011;26723;57.478;12.066;2022-08-19T15:40:51;1.70;;;1.60;;
40995;SDS011;26723;57.478;12.066;2022-08-19T15:44:21;1.15;;;1.15;;
40995;SDS011;26723;57.478;12.066;2022-08-19T15:47:29;1.40;;;1.30;;
40995;SDS011;26723;57.478;12.066;2022-08-19T15:50:40;1.40;;;1.30;;
40995;SDS011;26723;57.478;12.066;2022-08-19T15:53:49;1.48;;;1.45;;
40995;SDS011;26723;57.478;12.066;2022-08-19T15:56:57;1.77;;;1.67;;
40995;SDS011;26723;57.478;12.066;2022-08-19T16:00:25;1.10;;;1.10;;
40995;SDS011;26723;57.478;12.066;2022-08-19T16:03:58;1.17;;;1.17;;
40995;SDS011;26723;57.478;12.066;2022-08-19T16:07:24;1.10;;;1.10;;
40995;SDS011;26723;57.478;12.066;2022-08-19T16:10:33;1.20;;;1.20;;
40995;SDS011;26723;57.478;12.066;2022-08-19T16:13:42;1.17;;;1.17;;
40995;SDS011;26723;57.478;12.066;2022-08-19T16:16:51;1.50;;;1.40;;
40995;SDS011;26723;57.478;12.066;2022-08-19T16:20:02;1.15;;;1.13;;
40995;SDS011;26723;57.478;12.066;2022-08-19T16:23:13;2.80;;;2.15;;
40995;SDS011;26723;57.478;12.066;2022-08-19T16:26:21;17.10;;;7.30;;
40995;SDS011;26723;57.478;12.066;2022-08-19T16:29:36;18.98;;;7.43;;
40995;SDS011;26723;57.478;12.066;2022-08-19T16:32:46;15.63;;;6.10;;
40995;SDS011;26723;57.478;12.066;2022-08-19T16:35:54;6.43;;;4.38;;
40995;SDS011;26723;57.478;12.066;2022-08-19T16:39:13;5.68;;;3.20;;
40995;SDS011;26723;57.478;12.066;2022-08-19T16:42:23;3.20;;;2.90;;
40995;SDS011;26723;57.478;12.066;2022-08-19T16:45:31;2.00;;;1.90;;
40995;SDS011;26723;57.478;12.066;2022-08-19T16:48:40;1.50;;;1.50;;
40995;SDS011;26723;57.478;12.066;2022-08-19T16:51:50;1.50;;;1.40;;
40995;SDS011;26723;57.478;12.066;2022-08-19T16:54:59;2.00;;;1.90;;
40995;SDS011;26723;57.478;12.066;2022-08-19T16:58:07;3.88;;;3.60;;
40995;SDS011;26723;57.478;12.066;2022-08-19T17:01:15;5.80;;;5.22;;
40995;SDS011;26723;57.478;12.066;2022-08-19T17:04:25;5.20;;;4.90;;
40995;SDS011;26723;57.478;12.066;2022-08-19T17:07:33;4.00;;;3.70;;
40995;SDS011;26723;57.478;12.066;2022-08-19T17:10:42;3.33;;;3.10;;
40995;SDS011;26723;57.478;12.066;2022-08-19T17:14:10;3.08;;;2.88;;
40995;SDS011;26723;57.478;12.066;2022-08-19T17:17:18;2.90;;;2.70;;
40995;SDS011;26723;57.478;12.066;2022-08-19T17:20:35;1.70;;;1.70;;
40995;SDS011;26723;57.478;12.066;2022-08-19T17:23:44;1.80;;;1.70;;
40995;SDS011;26723;57.478;12.066;2022-08-19T17:26:52;1.98;;;1.88;;
40995;SDS011;26723;57.478;12.066;2022-08-19T17:30:00;1.75;;;1.65;;
40995;SDS011;26723;57.478;12.066;2022-08-19T17:33:11;1.42;;;1.42;;
40995;SDS011;26723;57.478;12.066;2022-08-19T17:36:21;1.58;;;1.50;;
40995;SDS011;26723;57.478;12.066;2022-08-19T17:39:31;1.50;;;1.40;;
40995;SDS011;26723;57.478;12.066;2022-08-19T17:42:45;1.60;;;1.27;;
40995;SDS011;26723;57.478;12.066;2022-08-19T17:45:53;1.40;;;1.35;;
40995;SDS011;26723;57.478;12.066;2022-08-19T17:49:01;1.70;;;1.60;;
40995;SDS011;26723;57.478;12.066;2022-08-19T17:52:11;1.50;;;1.50;;
40995;SDS011;26723;57.478;12.066;2022-08-19T17:55:20;1.35;;;1.35;;
40995;SDS011;26723;57.478;12.066;2022-08-19T17:58:28;1.65;;;1.55;;
40995;SDS011;26723;57.478;12.066;2022-08-19T18:01:37;1.25;;;1.25;;
40995;SDS011;26723;57.478;12.066;2022-08-19T18:04:59;1.40;;;1.30;;
40995;SDS011;26723;57.478;12.066;2022-08-19T18:08:08;1.48;;;1.48;;
40995;SDS011;26723;57.478;12.066;2022-08-19T18:11:17;1.17;;;1.17;;
40995;SDS011;26723;57.478;12.066;2022-08-19T18:14:29;1.25;;;1.25;;
40995;SDS011;26723;57.478;12.066;2022-08-19T18:17:39;2.80;;;1.50;;
40995;SDS011;26723;57.478;12.066;2022-08-19T18:20:47;1.50;;;1.40;;
40995;SDS011;26723;57.478;12.066;2022-08-19T18:23:57;1.55;;;1.45;;
40995;SDS011;26723;57.478;12.066;2022-08-19T18:27:07;1.40;;;1.40;;
40995;SDS011;26723;57.478;12.066;2022-08-19T18:30:16;2.20;;;1.40;;
40995;SDS011;26723;57.478;12.066;2022-08-19T18:33:25;1.25;;;1.25;;
40995;SDS011;26723;57.478;12.066;2022-08-19T18:36:33;1.50;;;1.40;;
40995;SDS011;26723;57.478;12.066;2022-08-19T18:40:00;1.60;;;1.60;;
40995;SDS011;26723;57.478;12.066;2022-08-19T18:43:26;1.88;;;1.77;;
40995;SDS011;26723;57.478;12.066;2022-08-19T18:46:52;1.60;;;1.50;;
40995;SDS011;26723;57.478;12.066;2022-08-19T18:50:18;1.40;;;1.40;;
40995;SDS011;26723;57.478;12.066;2022-08-19T18:53:27;2.00;;;1.80;;